Time;durP1;ratioP1;P1;durP2;ratioP2;P2;SDS_P1;SDS_P2;PMS_P1;PMS_P2;Temp;Humidity;BMP_temperature;BMP_pressure;BME280_temperature;BME280_humidity;BME280_pressure;Samples;Min_cycle;Max_cycle;Signal;HPM_P1;HPM_P2
2022/09/02 00:00:42;;;;;;;0.52;0.10;;;14.40;95.80;;;;;;5094030;28;20048;-78
2022/09/02 00:03:08;;;;;;;0.00;0.00;;;14.40;95.80;;;;;;5094231;28;20130;-78
2022/09/02 00:05:34;;;;;;;0.00;0.00;;;14.40;96.30;;;;;;5094318;28;20160;-78
2022/09/02 00:07:59;;;;;;;0.00;0.00;;;14.40;95.90;;;;;;5094194;28;20047;-78
2022/09/02 00:10:25;;;;;;;0.00;0.00;;;14.40;96.10;;;;;;5077199;28;20092;-78
2022/09/02 00:12:51;;;;;;;0.00;0.00;;;14.40;96.10;;;;;;5093806;28;20043;-78
2022/09/02 00:15:17;;;;;;;0.00;0.00;;;14.30;97.00;;;;;;5077147;28;20051;-79
2022/09/02 00:17:43;;;;;;;0.00;0.00;;;14.30;97.10;;;;;;5093992;28;20048;-78
2022/09/02 00:20:09;;;;;;;0.00;0.00;;;14.30;97.40;;;;;;5094057;28;20092;-78
2022/09/02 00:22:34;;;;;;;0.00;0.00;;;14.20;97.50;;;;;;5076992;28;20052;-78
2022/09/02 00:25:00;;;;;;;0.00;0.00;;;14.10;97.40;;;;;;5077509;28;20055;-78
2022/09/02 00:27:26;;;;;;;0.00;0.00;;;14.10;98.20;;;;;;5076912;28;20056;-78
2022/09/02 00:29:52;;;;;;;0.43;0.00;;;14.10;98.00;;;;;;5093995;28;20365;-78
2022/09/02 00:32:18;;;;;;;0.00;0.00;;;14.00;98.30;;;;;;5093986;28;20047;-79
2022/09/02 00:34:44;;;;;;;0.00;0.00;;;14.00;97.80;;;;;;5093110;28;20544;-78
2022/09/02 00:37:09;;;;;;;0.00;0.00;;;14.00;97.60;;;;;;5091663;28;20131;-79
2022/09/02 00:39:35;;;;;;;0.00;0.00;;;14.00;98.20;;;;;;5076470;28;20052;-78
2022/09/02 00:42:02;;;;;;;0.00;0.00;;;13.90;98.40;;;;;;5076799;28;20520;-78
2022/09/02 00:44:28;;;;;;;0.00;0.00;;;14.00;98.30;;;;;;5076020;28;20056;-78
2022/09/02 00:46:53;;;;;;;0.00;0.00;;;14.00;98.30;;;;;;5093375;28;20044;-78
2022/09/02 00:49:26;;;;;;;0.00;0.00;;;14.00;98.20;;;;;;5076454;28;20063;-78
2022/09/02 00:52:25;;;;;;;0.00;0.00;;;13.90;98.20;;;;;;5076511;28;20483;-78
2022/09/02 00:55:11;;;;;;;0.00;0.00;;;14.00;98.00;;;;;;5076760;28;20047;-78
2022/09/02 00:57:41;;;;;;;0.00;0.00;;;13.90;98.20;;;;;;5077195;28;20056;-78
2022/09/02 01:00:19;;;;;;;0.00;0.00;;;14.00;98.90;;;;;;5093288;28;20495;-78
2022/09/02 01:02:48;;;;;;;0.00;0.00;;;13.90;98.60;;;;;;5076348;28;20476;-78
2022/09/02 01:05:17;;;;;;;0.00;0.00;;;13.90;99.00;;;;;;5092792;28;20105;-79
2022/09/02 01:07:43;;;;;;;4.28;0.45;;;13.90;99.00;;;;;;5092923;28;20044;-78
2022/09/02 01:10:20;;;;;;;0.20;0.10;;;13.90;99.80;;;;;;5093476;28;20506;-78
2022/09/02 01:12:46;;;;;;;0.00;0.00;;;13.90;99.10;;;;;;5093259;28;20044;-78
2022/09/02 01:15:14;;;;;;;0.00;0.00;;;14.00;99.30;;;;;;5093012;28;20040;-78
2022/09/02 01:17:47;;;;;;;0.00;0.00;;;13.90;99.20;;;;;;5093103;28;20040;-78
2022/09/02 01:20:17;;;;;;;0.00;0.00;;;13.90;99.60;;;;;;5093056;28;20044;-78
2022/09/02 01:22:44;;;;;;;0.00;0.00;;;13.90;99.80;;;;;;5093239;28;20132;-78
2022/09/02 01:25:23;;;;;;;0.00;0.00;;;13.90;99.90;;;;;;5092668;28;20558;-78
2022/09/02 01:27:49;;;;;;;0.00;0.00;;;13.80;99.50;;;;;;5092909;28;20492;-79
2022/09/02 01:30:22;;;;;;;0.00;0.00;;;13.80;99.90;;;;;;5093054;28;20140;-79
2022/09/02 01:32:47;;;;;;;0.00;0.00;;;13.70;99.90;;;;;;5092046;28;20052;-79
2022/09/02 01:35:14;;;;;;;0.00;0.00;;;13.80;99.90;;;;;;5093023;28;20499;-79
2022/09/02 01:37:41;;;;;;;0.00;0.00;;;13.80;99.90;;;;;;5092849;28;20044;-79
2022/09/02 01:40:10;;;;;;;0.00;0.00;;;13.80;99.90;;;;;;5075813;28;20117;-79
2022/09/02 01:42:36;;;;;;;0.00;0.00;;;13.80;99.70;;;;;;5077057;28;20040;-79
2022/09/02 01:45:03;;;;;;;0.00;0.00;;;13.90;99.90;;;;;;5092844;28;20151;-79
2022/09/02 01:47:29;;;;;;;0.00;0.00;;;13.80;99.90;;;;;;5075833;28;20093;-79
2022/09/02 01:49:55;;;;;;;0.00;0.00;;;13.80;99.90;;;;;;5093188;28;20434;-79
2022/09/02 01:52:23;;;;;;;0.00;0.00;;;13.80;99.90;;;;;;5093149;28;20093;-78
2022/09/02 01:54:50;;;;;;;0.00;0.00;;;13.70;99.90;;;;;;5092405;28;20051;-79
2022/09/02 01:57:15;;;;;;;0.00;0.00;;;13.70;99.90;;;;;;5092459;28;20040;-78
2022/09/02 01:59:43;;;;;;;0.00;0.00;;;13.70;99.90;;;;;;5092324;28;20113;-78
2022/09/02 02:02:09;;;;;;;0.00;0.00;;;13.70;99.90;;;;;;5092335;28;20110;-78
2022/09/02 02:04:35;;;;;;;0.00;0.00;;;13.60;99.90;;;;;;5092530;28;20114;-79
2022/09/02 02:07:01;;;;;;;0.00;0.00;;;13.60;99.90;;;;;;5092578;28;20040;-78
2022/09/02 02:09:27;;;;;;;0.00;0.00;;;13.60;99.90;;;;;;5075622;28;20044;-78
2022/09/02 02:11:53;;;;;;;0.00;0.00;;;13.60;99.90;;;;;;5075672;28;20044;-79
2022/09/02 02:14:18;;;;;;;0.00;0.00;;;13.60;99.90;;;;;;5092367;28;20044;-78
2022/09/02 02:16:45;;;;;;;0.10;0.00;;;13.50;99.90;;;;;;5091983;28;20134;-78
2022/09/02 02:19:10;;;;;;;0.00;0.00;;;13.50;99.90;;;;;;5075427;28;20452;-79
2022/09/02 02:21:36;;;;;;;0.00;0.00;;;13.60;99.90;;;;;;5075751;28;20143;-79
2022/09/02 02:24:02;;;;;;;0.00;0.00;;;13.50;99.90;;;;;;5092586;28;20048;-79
2022/09/02 02:26:29;;;;;;;0.00;0.00;;;13.50;99.90;;;;;;5092350;28;20048;-79
2022/09/02 02:28:55;;;;;;;0.00;0.00;;;13.40;99.90;;;;;;5075619;28;20048;-79
2022/09/02 02:31:21;;;;;;;0.00;0.00;;;13.50;99.90;;;;;;5092613;28;20160;-79
2022/09/02 02:33:46;;;;;;;0.00;0.00;;;13.40;99.90;;;;;;5092401;28;20130;-79
2022/09/02 02:36:13;;;;;;;0.00;0.00;;;13.40;99.90;;;;;;5075504;28;20044;-79
2022/09/02 02:38:40;;;;;;;0.00;0.00;;;13.40;99.90;;;;;;5092497;28;20040;-79
2022/09/02 02:41:06;;;;;;;0.00;0.00;;;13.40;99.90;;;;;;5092368;28;20131;-79
2022/09/02 02:43:34;;;;;;;0.00;0.00;;;13.40;99.90;;;;;;5092409;28;20097;-79
2022/09/02 02:46:00;;;;;;;0.25;0.25;;;13.30;99.90;;;;;;5096068;28;20046;-79
2022/09/02 02:48:25;;;;;;;0.00;0.00;;;13.30;99.90;;;;;;5095956;28;20383;-79
2022/09/02 02:50:51;;;;;;;0.00;0.00;;;13.20;99.90;;;;;;5078814;28;20056;-79
2022/09/02 02:53:17;;;;;;;0.00;0.00;;;13.20;99.90;;;;;;5095748;28;20083;-79
2022/09/02 02:55:43;;;;;;;0.00;0.00;;;13.20;99.90;;;;;;5079114;28;20048;-79
2022/09/02 02:58:09;;;;;;;0.00;0.00;;;13.20;99.90;;;;;;5078747;28;20044;-79
2022/09/02 03:00:35;;;;;;;0.00;0.00;;;13.20;99.90;;;;;;5095034;28;20105;-79
2022/09/02 03:03:10;;;;;;;0.73;0.15;;;13.10;99.90;;;;;;5095500;28;20090;-79
2022/09/02 03:05:37;;;;;;;0.00;0.00;;;13.10;99.90;;;;;;5078779;28;20051;-79
2022/09/02 03:08:08;;;;;;;0.00;0.00;;;13.10;99.90;;;;;;5095775;28;20044;-79
2022/09/02 03:10:34;;;;;;;0.00;0.00;;;13.00;99.90;;;;;;5078670;28;20177;-79
2022/09/02 03:13:01;;;;;;;1.02;0.20;;;13.00;99.90;;;;;;5095120;28;20040;-79
2022/09/02 03:15:28;;;;;;;0.00;0.00;;;13.00;99.90;;;;;;5078810;28;20142;-79
2022/09/02 03:17:55;;;;;;;0.25;0.25;;;13.00;99.90;;;;;;5078676;28;20387;-79
2022/09/02 03:20:23;;;;;;;0.00;0.00;;;13.00;99.90;;;;;;5078705;28;20484;-79
2022/09/02 03:22:50;;;;;;;0.00;0.00;;;13.00;99.90;;;;;;5078238;28;20098;-79
2022/09/02 03:25:19;;;;;;;0.00;0.00;;;12.90;99.90;;;;;;5077825;28;20048;-79
2022/09/02 03:27:46;;;;;;;0.00;0.00;;;12.90;99.90;;;;;;5095069;28;20063;-79
2022/09/02 03:30:18;;;;;;;0.00;0.00;;;12.90;99.90;;;;;;5095071;28;20043;-78
2022/09/02 03:32:44;;;;;;;0.00;0.00;;;12.80;99.90;;;;;;5078178;28;20048;-78
2022/09/02 03:35:17;;;;;;;0.00;0.00;;;12.80;99.90;;;;;;5078291;28;20048;-78
2022/09/02 03:37:43;;;;;;;0.00;0.00;;;12.70;99.90;;;;;;5094900;28;20131;-78
2022/09/02 03:40:12;;;;;;;0.00;0.00;;;12.70;99.90;;;;;;5094494;28;20134;-78
2022/09/02 03:42:38;;;;;;;0.00;0.00;;;12.70;99.90;;;;;;5078036;28;20058;-78
2022/09/02 03:45:06;;;;;;;0.00;0.00;;;12.70;99.90;;;;;;5077469;28;20122;-78
2022/09/02 03:47:34;;;;;;;0.00;0.00;;;12.60;99.90;;;;;;5077305;28;20094;-78
2022/09/02 03:50:02;;;;;;;0.05;0.00;;;12.60;99.90;;;;;;5077716;28;20394;-78
2022/09/02 03:52:28;;;;;;;0.00;0.00;;;12.60;99.90;;;;;;5094563;28;20047;-79
2022/09/02 03:54:54;;;;;;;0.00;0.00;;;12.50;99.90;;;;;;5094578;28;20062;-78
2022/09/02 03:57:21;;;;;;;0.00;0.00;;;12.50;99.90;;;;;;5077246;28;20476;-78
2022/09/02 03:59:51;;;;;;;0.00;0.00;;;12.40;99.90;;;;;;5094064;28;20060;-78
2022/09/02 04:02:17;;;;;;;0.00;0.00;;;12.40;99.90;;;;;;5094292;28;20484;-79
2022/09/02 04:04:43;;;;;;;0.00;0.00;;;12.40;99.90;;;;;;5094016;28;20044;-79
2022/09/02 04:07:09;;;;;;;0.25;0.00;;;12.30;99.90;;;;;;5093949;28;20373;-79
2022/09/02 04:09:34;;;;;;;0.00;0.00;;;12.30;99.90;;;;;;5094316;28;20044;-78
2022/09/02 04:12:04;;;;;;;0.00;0.00;;;12.30;99.90;;;;;;5077106;28;20047;-78
2022/09/02 04:14:30;;;;;;;0.00;0.00;;;12.30;99.90;;;;;;5093807;28;20499;-78
2022/09/02 04:16:55;;;;;;;0.00;0.00;;;12.30;99.90;;;;;;5093793;28;20055;-77
2022/09/02 04:19:21;;;;;;;0.00;0.00;;;12.20;99.90;;;;;;5077049;28;20051;-78
2022/09/02 04:21:47;;;;;;;0.00;0.00;;;12.20;99.90;;;;;;5093008;28;20039;-79
2022/09/02 04:24:13;;;;;;;0.00;0.00;;;12.20;99.90;;;;;;5077655;28;20083;-79
2022/09/02 04:26:39;;;;;;;0.00;0.00;;;12.10;99.90;;;;;;5076836;28;20476;-79
2022/09/02 04:29:06;;;;;;;3.72;0.10;;;12.10;99.90;;;;;;5093669;28;20477;-79
2022/09/02 04:31:31;;;;;;;0.00;0.00;;;12.00;99.90;;;;;;5093726;28;20117;-79
2022/09/02 04:33:58;;;;;;;0.00;0.00;;;12.10;99.90;;;;;;5076398;28;20483;-79
2022/09/02 04:36:25;;;;;;;0.00;0.00;;;12.00;99.90;;;;;;5093532;28;20044;-79
2022/09/02 04:38:52;;;;;;;0.00;0.00;;;12.00;99.90;;;;;;5093576;28;20054;-79
2022/09/02 04:41:22;;;;;;;0.00;0.00;;;12.00;99.90;;;;;;5093731;28;20052;-79
2022/09/02 04:43:53;;;;;;;0.00;0.00;;;12.00;99.90;;;;;;5076669;28;20044;-78
2022/09/02 04:46:19;;;;;;;0.00;0.00;;;12.00;99.90;;;;;;5077080;28;20433;-79
2022/09/02 04:48:46;;;;;;;0.00;0.00;;;12.00;99.90;;;;;;5093005;28;20052;-79
2022/09/02 04:51:17;;;;;;;0.00;0.00;;;12.00;99.90;;;;;;5093699;28;20071;-80
2022/09/02 04:53:44;;;;;;;0.00;0.00;;;11.90;99.90;;;;;;5092737;28;20130;-79
2022/09/02 04:56:13;;;;;;;0.00;0.00;;;11.90;99.90;;;;;;5075769;28;20148;-79
2022/09/02 04:58:40;;;;;;;0.00;0.00;;;11.80;99.90;;;;;;5093181;28;20119;-79
2022/09/02 05:01:08;;;;;;;0.00;0.00;;;11.90;99.90;;;;;;5074484;28;20052;-79
2022/09/02 05:03:35;;;;;;;0.00;0.00;;;11.80;99.90;;;;;;5076167;28;20052;-79
2022/09/02 05:06:05;;;;;;;0.00;0.00;;;11.90;99.90;;;;;;5092821;28;20084;-79
2022/09/02 05:08:33;;;;;;;0.00;0.00;;;11.90;99.90;;;;;;5092219;28;20055;-79
2022/09/02 05:11:01;;;;;;;0.00;0.00;;;11.90;99.90;;;;;;5093311;28;20052;-79
2022/09/02 05:13:27;;;;;;;0.00;0.00;;;11.90;99.90;;;;;;5075765;28;20093;-78
2022/09/02 05:15:53;;;;;;;0.00;0.00;;;11.90;99.90;;;;;;5091454;28;20522;-79
2022/09/02 05:18:19;;;;;;;0.00;0.00;;;11.90;99.90;;;;;;5095947;28;20142;-79
2022/09/02 05:20:44;;;;;;;0.00;0.00;;;11.90;99.90;;;;;;5113502;28;20083;-79
2022/09/02 05:23:12;;;;;;;0.00;0.00;;;12.00;99.90;;;;;;5113400;28;20134;-79
2022/09/02 05:25:38;;;;;;;0.00;0.00;;;12.00;99.90;;;;;;5095643;28;20495;-80
2022/09/02 05:28:04;;;;;;;0.00;0.00;;;12.00;99.90;;;;;;5096540;28;20048;-79
2022/09/02 05:30:30;;;;;;;0.00;0.00;;;12.00;99.90;;;;;;5113556;28;20077;-79
2022/09/02 05:32:56;;;;;;;0.00;0.00;;;12.10;99.90;;;;;;5096459;28;20051;-78
2022/09/02 05:35:22;;;;;;;0.00;0.00;;;12.10;99.90;;;;;;5113127;28;20136;-79
2022/09/02 05:37:47;;;;;;;0.00;0.00;;;12.20;99.90;;;;;;5113165;28;20481;-79
2022/09/02 05:40:15;;;;;;;0.00;0.00;;;12.20;99.90;;;;;;5113071;28;20050;-79
2022/09/02 05:42:42;;;;;;;0.00;0.00;;;12.20;99.90;;;;;;5113325;28;20100;-78
2022/09/02 05:45:09;;;;;;;0.00;0.00;;;12.30;99.90;;;;;;5113102;28;20059;-78
2022/09/02 05:47:35;;;;;;;0.00;0.00;;;12.30;99.90;;;;;;5113013;28;20082;-78
2022/09/02 05:50:01;;;;;;;0.00;0.00;;;12.40;99.90;;;;;;5113105;28;20048;-78
2022/09/02 05:52:27;;;;;;;0.00;0.00;;;12.40;99.90;;;;;;5113018;28;20134;-78
2022/09/02 05:54:54;;;;;;;0.00;0.00;;;12.40;99.90;;;;;;5112746;28;20043;-79
2022/09/02 05:57:21;;;;;;;0.08;0.00;;;12.50;99.90;;;;;;5112985;28;20116;-79
2022/09/02 05:59:48;;;;;;;0.00;0.00;;;12.50;99.90;;;;;;5095599;28;20059;-78
2022/09/02 06:02:16;;;;;;;0.00;0.00;;;12.50;99.90;;;;;;5095265;28;20114;-78
2022/09/02 06:04:48;;;;;;;0.00;0.00;;;12.60;99.90;;;;;;5112500;28;20047;-78
2022/09/02 06:07:15;;;;;;;0.03;0.03;;;12.60;99.90;;;;;;5095845;28;20135;-78
2022/09/02 06:09:43;;;;;;;0.00;0.00;;;12.70;99.90;;;;;;5112924;28;20039;-78
2022/09/02 06:12:11;;;;;;;0.00;0.00;;;12.80;99.90;;;;;;5095289;28;20154;-78
2022/09/02 06:14:36;;;;;;;0.00;0.00;;;12.80;99.90;;;;;;5095706;28;20051;-78
2022/09/02 06:17:04;;;;;;;0.00;0.00;;;12.80;99.90;;;;;;5112970;28;20047;-78
2022/09/02 06:19:31;;;;;;;0.00;0.00;;;12.90;99.90;;;;;;5097129;28;20051;-78
2022/09/02 06:21:58;;;;;;;0.00;0.00;;;13.00;99.90;;;;;;5116597;28;20065;-78
2022/09/02 06:24:25;;;;;;;0.00;0.00;;;13.00;99.90;;;;;;5116407;28;20574;-78
2022/09/02 06:26:52;;;;;;;0.00;0.00;;;13.10;99.90;;;;;;5099689;28;20052;-78
2022/09/02 06:29:19;;;;;;;0.00;0.00;;;13.20;99.90;;;;;;5116708;28;20055;-78
2022/09/02 06:31:47;;;;;;;0.00;0.00;;;13.20;99.90;;;;;;5099707;28;20475;-78
2022/09/02 06:34:15;;;;;;;0.32;0.32;;;13.30;99.90;;;;;;5116228;28;20059;-78
2022/09/02 06:36:43;;;;;;;0.00;0.00;;;13.40;99.90;;;;;;5116630;28;20100;-78
2022/09/02 06:39:12;;;;;;;0.00;0.00;;;13.40;99.90;;;;;;5099000;28;20055;-79
2022/09/02 06:41:39;;;;;;;0.45;0.22;;;13.50;99.90;;;;;;5116207;28;20048;-79
2022/09/02 06:44:06;;;;;;;0.00;0.00;;;13.60;99.90;;;;;;5099329;28;20125;-78
2022/09/02 06:46:36;;;;;;;0.00;0.00;;;13.70;99.90;;;;;;5116338;28;20043;-78
2022/09/02 06:49:04;;;;;;;0.05;0.03;;;13.80;99.90;;;;;;5116245;28;20134;-79
2022/09/02 06:51:39;;;;;;;0.00;0.00;;;13.90;99.90;;;;;;5116183;28;20040;-79
2022/09/02 06:54:07;;;;;;;0.00;0.00;;;14.10;99.90;;;;;;5116222;28;20048;-79
2022/09/02 06:56:33;;;;;;;0.75;0.60;;;14.40;99.90;;;;;;5099454;28;20047;-78
2022/09/02 06:58:59;;;;;;;0.00;0.00;;;14.90;99.90;;;;;;5098878;28;20090;-78
2022/09/02 07:01:28;;;;;;;0.30;0.10;;;15.80;99.90;;;;;;5098206;28;20398;-79
2022/09/02 07:06:40;;;;;;;;;;;17.40;99.90;;;;;;5116147;28;20046;-78
2022/09/02 07:09:08;;;;;;;0.00;0.00;;;17.50;99.90;;;;;;5098794;28;19930;-79
2022/09/02 07:11:34;;;;;;;0.00;0.00;;;17.40;99.90;;;;;;5115358;28;20502;-79
2022/09/02 07:14:00;;;;;;;0.10;0.00;;;17.30;99.90;;;;;;5114968;28;20048;-78
2022/09/02 07:16:33;;;;;;;0.00;0.00;;;17.30;99.90;;;;;;5115497;28;20047;-78
2022/09/02 07:19:00;;;;;;;0.00;0.00;;;17.30;99.90;;;;;;5098652;28;20044;-79
2022/09/02 07:21:29;;;;;;;0.00;0.00;;;17.30;99.90;;;;;;5098599;28;20544;-78
2022/09/02 07:23:58;;;;;;;0.00;0.00;;;17.40;99.90;;;;;;5097895;28;20134;-78
2022/09/02 07:26:25;;;;;;;0.00;0.00;;;17.70;99.90;;;;;;5097615;28;20098;-78
2022/09/02 07:28:52;;;;;;;0.00;0.00;;;18.10;99.90;;;;;;5115470;28;20054;-78
2022/09/02 07:31:18;;;;;;;0.00;0.00;;;18.30;99.90;;;;;;5113934;28;20047;-78
2022/09/02 07:33:44;;;;;;;0.00;0.00;;;18.30;99.80;;;;;;5114917;28;20455;-78
2022/09/02 07:36:12;;;;;;;0.00;0.00;;;18.50;99.90;;;;;;5115128;28;20048;-78
2022/09/02 07:38:39;;;;;;;0.00;0.00;;;18.80;99.50;;;;;;5115160;28;20067;-78
2022/09/02 07:41:05;;;;;;;0.00;0.00;;;18.80;99.30;;;;;;5115079;28;20058;-78
2022/09/02 07:43:32;;;;;;;0.00;0.00;;;18.70;98.60;;;;;;5115076;28;20051;-78
2022/09/02 07:45:59;;;;;;;0.00;0.00;;;18.70;99.40;;;;;;5097956;28;20399;-78
2022/09/02 07:48:26;;;;;;;0.00;0.00;;;18.60;98.90;;;;;;5097617;28;20052;-78
2022/09/02 07:50:53;;;;;;;0.00;0.00;;;18.50;99.30;;;;;;5097696;28;20502;-78
2022/09/02 07:53:19;;;;;;;1.75;0.65;;;18.50;98.20;;;;;;5114783;28;20040;-78
2022/09/02 07:55:46;;;;;;;0.00;0.00;;;18.40;98.20;;;;;;5097976;28;20036;-78
2022/09/02 07:58:12;;;;;;;0.00;0.00;;;18.30;98.40;;;;;;5114828;28;20104;-78
2022/09/02 08:00:40;;;;;;;0.00;0.00;;;18.30;98.40;;;;;;5097226;28;20063;-78
2022/09/02 08:03:07;;;;;;;0.00;0.00;;;18.30;98.60;;;;;;5097907;28;20059;-78
2022/09/02 08:05:34;;;;;;;0.03;0.00;;;18.20;98.60;;;;;;5097731;28;20380;-78
2022/09/02 08:08:00;;;;;;;0.00;0.00;;;18.20;98.50;;;;;;5097704;28;20096;-78
2022/09/02 08:10:28;;;;;;;0.10;0.05;;;18.20;98.40;;;;;;5114619;28;20039;-78
2022/09/02 08:12:55;;;;;;;0.00;0.00;;;18.20;98.30;;;;;;5114571;28;20040;-78
2022/09/02 08:15:21;;;;;;;0.00;0.00;;;18.20;99.10;;;;;;5114853;28;20092;-78
2022/09/02 08:17:49;;;;;;;0.00;0.00;;;18.20;99.00;;;;;;5097547;28;20051;-78
2022/09/02 08:20:16;;;;;;;0.20;0.20;;;18.30;98.70;;;;;;5097173;28;20495;-78
2022/09/02 08:22:42;;;;;;;0.00;0.00;;;18.30;99.10;;;;;;5097640;28;20051;-78
2022/09/02 08:25:09;;;;;;;0.00;0.00;;;18.30;98.30;;;;;;5097491;28;20093;-78
2022/09/02 08:27:36;;;;;;;0.00;0.00;;;18.40;98.30;;;;;;5097414;28;20051;-78
2022/09/02 08:30:03;;;;;;;0.00;0.00;;;18.40;97.60;;;;;;5097500;28;20057;-78
2022/09/02 08:32:31;;;;;;;0.00;0.00;;;18.50;98.70;;;;;;5114291;28;20031;-79
2022/09/02 08:35:01;;;;;;;0.00;0.00;;;18.50;98.70;;;;;;5113943;28;20494;-78
2022/09/02 08:37:28;;;;;;;0.00;0.00;;;18.70;99.10;;;;;;5114044;28;20522;-78
2022/09/02 08:39:54;;;;;;;0.00;0.00;;;18.80;97.90;;;;;;5113987;28;20051;-79
2022/09/02 08:42:27;;;;;;;0.10;0.10;;;18.90;98.00;;;;;;5113709;28;20040;-79
2022/09/02 08:45:17;;;;;;;0.00;0.00;;;19.00;97.70;;;;;;5097176;28;20090;-78
2022/09/02 08:47:47;;;;;;;0.10;0.10;;;19.00;97.50;;;;;;5096147;28;20047;-78
2022/09/02 08:50:15;;;;;;;0.00;0.00;;;19.20;97.80;;;;;;5113815;28;20455;-78
2022/09/02 08:53:07;;;;;;;0.10;0.00;;;19.30;96.90;;;;;;5113853;28;20539;-78
2022/09/02 08:55:54;;;;;;;0.00;0.00;;;19.50;97.40;;;;;;5097165;28;20104;-78
2022/09/02 08:58:23;;;;;;;0.00;0.00;;;19.70;96.50;;;;;;5097030;28;20403;-79
2022/09/02 09:01:13;;;;;;;0.00;0.00;;;19.80;96.60;;;;;;5096390;28;20117;-79
2022/09/02 09:03:59;;;;;;;0.00;0.00;;;20.00;96.70;;;;;;4999311;28;20091;-79
2022/09/02 09:06:28;;;;;;;0.00;0.00;;;20.10;95.20;;;;;;5015790;28;20143;-80
2022/09/02 09:09:14;;;;;;;0.00;0.00;;;20.30;95.60;;;;;;5015958;28;20049;-80
2022/09/02 09:11:44;;;;;;;0.00;0.00;;;20.50;94.90;;;;;;4998552;28;20069;-80
2022/09/02 09:14:29;;;;;;;0.00;0.00;;;20.70;95.90;;;;;;5014978;28;20050;-80
2022/09/02 09:16:58;;;;;;;0.00;0.00;;;20.90;95.20;;;;;;4957096;28;20055;-79
2022/09/02 09:19:33;;;;;;;0.08;0.08;;;21.00;94.60;;;;;;4957013;28;20063;-78
2022/09/02 09:22:02;;;;;;;0.00;0.00;;;21.20;94.50;;;;;;4957596;28;20054;-79
2022/09/02 09:24:45;;;;;;;0.10;0.10;;;21.30;93.60;;;;;;4957056;28;20121;-79
2022/09/02 09:27:21;;;;;;;0.00;0.00;;;21.40;93.20;;;;;;4957095;28;20400;-78
2022/09/02 09:29:49;;;;;;;0.00;0.00;;;21.50;92.40;;;;;;4957061;28;20455;-78
2022/09/02 09:32:24;;;;;;;0.25;0.13;;;21.60;92.20;;;;;;4957482;28;20086;-78
2022/09/02 09:35:01;;;;;;;0.00;0.00;;;21.70;92.60;;;;;;4956633;28;20138;-78
2022/09/02 09:37:54;;;;;;;0.00;0.00;;;21.80;91.80;;;;;;4957205;28;20138;-79
2022/09/02 09:40:20;;;;;;;0.00;0.00;;;22.00;91.90;;;;;;4973612;28;20060;-79
2022/09/02 09:42:54;;;;;;;0.00;0.00;;;22.00;90.90;;;;;;5055430;28;20082;-79
2022/09/02 09:45:37;;;;;;;0.00;0.00;;;22.10;90.80;;;;;;5055001;28;20048;-78
2022/09/02 09:48:11;;;;;;;0.00;0.00;;;22.20;90.30;;;;;;5054952;28;20159;-79
2022/09/02 09:50:37;;;;;;;0.00;0.00;;;22.30;90.00;;;;;;5054845;28;20106;-79
2022/09/02 09:53:20;;;;;;;0.00;0.00;;;22.50;90.30;;;;;;5059294;28;20040;-79
2022/09/02 09:56:21;;;;;;;0.00;0.00;;;22.70;90.20;;;;;;5116580;28;20047;-79
2022/09/02 09:58:47;;;;;;;0.13;0.00;;;22.90;88.80;;;;;;5100199;28;20054;-79
2022/09/02 10:01:19;;;;;;;0.00;0.00;;;23.00;85.50;;;;;;5099855;28;20142;-78
2022/09/02 10:03:51;;;;;;;0.00;0.00;;;23.10;83.40;;;;;;5100159;28;20056;-79
2022/09/02 10:06:22;;;;;;;2.55;0.52;;;23.20;85.00;;;;;;5099991;28;20044;-78
2022/09/02 10:08:56;;;;;;;0.00;0.00;;;23.40;83.90;;;;;;5100214;28;20108;-79
2022/09/02 10:11:27;;;;;;;0.00;0.00;;;23.50;84.90;;;;;;5099784;28;20478;-79
2022/09/02 10:14:04;;;;;;;0.00;0.00;;;23.60;81.90;;;;;;5099672;28;20093;-79
2022/09/02 10:16:49;;;;;;;0.00;0.00;;;23.70;81.40;;;;;;5100263;28;20051;-78
2022/09/02 10:19:44;;;;;;;0.00;0.00;;;23.80;79.30;;;;;;5100323;28;20138;-80
2022/09/02 10:22:18;;;;;;;0.00;0.00;;;24.00;80.10;;;;;;5002165;28;20196;-79
2022/09/02 10:25:14;;;;;;;0.00;0.00;;;24.10;78.10;;;;;;5018717;28;20053;-79
2022/09/02 10:28:08;;;;;;;0.00;0.00;;;24.20;76.80;;;;;;5018709;28;20065;-80
2022/09/02 10:31:04;;;;;;;0.00;0.00;;;24.40;76.80;;;;;;5018778;28;20104;-79
2022/09/02 10:33:56;;;;;;;0.00;0.00;;;24.50;75.90;;;;;;5018887;28;20085;-80
2022/09/02 10:36:32;;;;;;;0.00;0.00;;;24.70;75.80;;;;;;5018545;28;20042;-79
2022/09/02 10:39:42;;;;;;;0.00;0.00;;;24.70;70.50;;;;;;5019061;28;20114;-79
2022/09/02 10:42:32;;;;;;;0.00;0.00;;;24.80;71.60;;;;;;4959832;28;20125;-79
2022/09/02 10:45:23;;;;;;;0.40;0.10;;;25.00;74.10;;;;;;4960072;28;20051;-80
2022/09/02 10:48:00;;;;;;;0.00;0.00;;;25.10;70.40;;;;;;4959644;28;20577;-79
2022/09/02 10:50:54;;;;;;;0.00;0.00;;;25.20;70.20;;;;;;4960043;28;20046;-83
2022/09/02 10:53:58;;;;;;;0.00;0.00;;;25.20;69.60;;;;;;4959171;28;20411;-81
2022/09/02 10:56:56;;;;;;;0.00;0.00;;;25.20;67.70;;;;;;4959641;28;20061;-81
2022/09/02 10:59:49;;;;;;;0.00;0.00;;;25.30;70.50;;;;;;5004232;28;20052;-80
2022/09/02 11:02:26;;;;;;;0.00;0.00;;;25.20;64.80;;;;;;5058054;28;20570;-80
2022/09/02 11:05:26;;;;;;;0.00;0.00;;;25.30;67.20;;;;;;5057488;28;20044;-79
2022/09/02 11:07:59;;;;;;;0.00;0.00;;;25.30;65.70;;;;;;4943438;28;20108;-80
2022/09/02 11:10:37;;;;;;;0.10;0.00;;;25.40;68.90;;;;;;4975523;28;20483;-81
2022/09/02 11:13:19;;;;;;;0.00;0.00;;;25.60;66.00;;;;;;4959530;28;20059;-79
2022/09/02 11:16:13;;;;;;;0.00;0.00;;;25.60;65.50;;;;;;4975308;28;20114;-80
2022/09/02 11:18:57;;;;;;;0.00;0.00;;;25.60;65.30;;;;;;4993715;28;20057;-80
2022/09/02 11:21:38;;;;;;;0.00;0.00;;;25.70;65.20;;;;;;5018037;28;20045;-80
2022/09/02 11:24:18;;;;;;;0.00;0.00;;;25.80;64.10;;;;;;5001452;28;20243;-81
2022/09/02 11:27:14;;;;;;;0.00;0.00;;;25.80;63.90;;;;;;5001356;28;20143;-81
2022/09/02 11:30:00;;;;;;;0.00;0.00;;;25.90;62.40;;;;;;5000829;28;20049;-80
2022/09/02 11:32:35;;;;;;;0.00;0.00;;;26.10;64.20;;;;;;5001221;28;20057;-80
2022/09/02 11:35:09;;;;;;;0.00;0.00;;;26.00;63.60;;;;;;5017217;28;20049;-81
2022/09/02 11:38:24;;;;;;;0.00;0.00;;;26.20;64.60;;;;;;5001339;28;20057;-80
2022/09/02 11:41:24;;;;;;;0.00;0.00;;;26.30;62.50;;;;;;4882822;29;20052;-80
2022/09/02 11:44:12;;;;;;;0.00;0.00;;;26.30;62.10;;;;;;4910115;28;20203;-81
2022/09/02 11:47:06;;;;;;;0.00;0.00;;;26.40;62.40;;;;;;4959298;28;20051;-81
2022/09/02 11:49:53;;;;;;;0.00;0.00;;;26.30;61.40;;;;;;4974570;28;20423;-80
2022/09/02 11:52:32;;;;;;;0.00;0.00;;;26.40;59.90;;;;;;4958540;28;20059;-81
2022/09/02 11:55:46;;;;;;;0.00;0.00;;;26.40;59.00;;;;;;4951558;28;20484;-81
2022/09/02 11:58:39;;;;;;;0.00;0.00;;;26.60;60.90;;;;;;4920235;29;20064;-81
2022/09/02 12:01:17;;;;;;;0.00;0.00;;;26.70;59.50;;;;;;4915859;29;20409;-81
2022/09/02 12:03:51;;;;;;;0.00;0.00;;;26.80;58.80;;;;;;4900165;29;20052;-80
2022/09/02 12:06:19;;;;;;;0.00;0.00;;;26.80;57.10;;;;;;4901008;29;20475;-81
2022/09/02 12:08:45;;;;;;;0.00;0.00;;;26.90;56.90;;;;;;4905310;29;20056;-80
2022/09/02 12:11:46;;;;;;;0.00;0.00;;;27.00;57.80;;;;;;4916664;29;20107;-79
2022/09/02 12:14:24;;;;;;;0.00;0.00;;;27.00;58.10;;;;;;4917177;29;20052;-80
2022/09/02 12:17:07;;;;;;;0.00;0.00;;;27.10;59.00;;;;;;4939110;28;20070;-80
2022/09/02 12:19:39;;;;;;;0.00;0.00;;;27.10;58.50;;;;;;5020081;28;20051;-80
2022/09/02 12:22:16;;;;;;;0.00;0.00;;;27.20;58.60;;;;;;5025404;28;20052;-80
2022/09/02 12:25:01;;;;;;;0.38;0.05;;;27.20;56.40;;;;;;5056116;28;20053;-79
2022/09/02 12:27:38;;;;;;;0.00;0.00;;;27.20;56.20;;;;;;5055860;28;20131;-83
2022/09/02 12:30:08;;;;;;;0.00;0.00;;;27.20;55.00;;;;;;5055643;28;20087;-84
2022/09/02 12:32:45;;;;;;;0.00;0.00;;;27.30;54.70;;;;;;5055746;28;20075;-83
2022/09/02 12:35:27;;;;;;;0.00;0.00;;;27.20;55.30;;;;;;5065388;28;20142;-80
2022/09/02 12:38:16;;;;;;;0.47;0.00;;;27.40;56.00;;;;;;5097883;28;20372;-80
2022/09/02 12:41:03;;;;;;;0.08;0.00;;;27.50;56.90;;;;;;5114137;28;20081;-81
2022/09/02 12:43:43;;;;;;;1.38;0.10;;;27.50;56.30;;;;;;5096317;28;20440;-81
2022/09/02 12:46:30;;;;;;;0.00;0.00;;;27.60;56.80;;;;;;5096203;28;20055;-80
2022/09/02 12:49:21;;;;;;;0.00;0.00;;;27.60;56.10;;;;;;5113220;28;20047;-80
2022/09/02 12:51:56;;;;;;;0.00;0.00;;;27.70;55.70;;;;;;5096902;28;20083;-80
2022/09/02 12:54:37;;;;;;;0.00;0.00;;;27.50;54.30;;;;;;5096220;28;20073;-80
2022/09/02 12:57:05;;;;;;;0.00;0.00;;;27.60;55.20;;;;;;5096803;28;20130;-81
2022/09/02 12:59:34;;;;;;;0.00;0.00;;;27.70;55.40;;;;;;5113755;28;20051;-81
2022/09/02 13:02:21;;;;;;;0.00;0.00;;;27.80;56.20;;;;;;5096882;28;20047;-81
2022/09/02 13:04:53;;;;;;;0.00;0.00;;;28.00;57.10;;;;;;5113831;28;20048;-81
2022/09/02 13:07:46;;;;;;;0.00;0.00;;;27.90;54.60;;;;;;5096791;28;20044;-80
2022/09/02 13:10:46;;;;;;;0.00;0.00;;;27.70;55.00;;;;;;5113574;28;20092;-80
2022/09/02 13:13:50;;;;;;;0.00;0.00;;;27.70;55.50;;;;;;5113229;28;20142;-81
2022/09/02 13:16:58;;;;;;;0.00;0.00;;;27.80;56.50;;;;;;5091871;28;20070;-81